Time;durP1;ratioP1;P1;durP2;ratioP2;P2;SDS_P1;SDS_P2;PMS_P1;PMS_P2;Temp;Humidity;BMP_temperature;BMP_pressure;BME280_temperature;BME280_humidity;BME280_pressure;Samples;Min_cycle;Max_cycle;Signal;HPM_P1;HPM_P2
2022/02/13 00:00:47;;;;;;;0.47;0.47;;;;;;;4.05;57.07;101930.13;5034105;28;20029;-82
2022/02/13 00:03:13;;;;;;;0.10;0.10;;;;;;;4.02;57.11;101929.16;5031737;28;20034;-82
2022/02/13 00:05:40;;;;;;;0.10;0.10;;;;;;;4.00;57.13;101913.38;5029429;28;20393;-81
2022/02/13 00:08:06;;;;;;;0.43;0.43;;;;;;;3.94;57.96;101921.09;5022966;28;20033;-83
2022/02/13 00:10:33;;;;;;;0.10;0.10;;;;;;;3.90;57.94;101908.78;5030397;28;20037;-82
2022/02/13 00:12:59;;;;;;;0.10;0.10;;;;;;;3.86;58.13;101912.16;5024681;28;20026;-81
2022/02/13 00:15:25;;;;;;;0.10;0.10;;;;;;;3.83;58.14;101897.22;5027913;28;20108;-82
2022/02/13 00:17:51;;;;;;;0.10;0.10;;;;;;;3.80;58.15;101897.19;5031311;28;20033;-83
2022/02/13 00:20:18;;;;;;;0.10;0.10;;;;;;;3.80;57.95;101891.03;5032067;28;20124;-82
2022/02/13 00:22:44;;;;;;;0.10;0.10;;;;;;;3.78;58.19;101893.63;5032039;28;20044;-82
2022/02/13 00:25:14;;;;;;;0.10;0.10;;;;;;;3.73;58.67;101884.75;5025213;28;20041;-83
2022/02/13 00:27:40;;;;;;;0.10;0.10;;;;;;;3.78;57.73;101882.25;5026813;28;20025;-83
2022/02/13 00:30:07;;;;;;;0.10;0.10;;;;;;;3.78;58.27;101879.63;5030876;28;20095;-81
2022/02/13 00:32:34;;;;;;;0.15;0.15;;;;;;;3.75;58.29;101877.84;5023593;28;20029;-84
2022/02/13 00:35:00;;;;;;;0.10;0.10;;;;;;;3.67;58.62;101867.13;5028110;28;20034;-80
2022/02/13 00:37:26;;;;;;;0.63;0.63;;;;;;;3.67;59.07;101866.25;5025783;28;20056;-83
2022/02/13 00:39:53;;;;;;;0.10;0.10;;;;;;;3.65;59.00;101860.97;5031879;28;20057;-83
2022/02/13 00:42:20;;;;;;;0.10;0.10;;;;;;;3.66;58.99;101846.13;5029293;28;20081;-82
2022/02/13 00:44:46;;;;;;;0.10;0.10;;;;;;;3.67;58.75;101840.03;5024337;28;20038;-81
2022/02/13 00:47:13;;;;;;;0.10;0.10;;;;;;;3.64;58.76;101837.34;5024227;28;20031;-81
2022/02/13 00:49:40;;;;;;;0.60;0.60;;;;;;;3.63;59.41;101819.88;5026964;28;20037;-81
2022/02/13 00:52:06;;;;;;;0.10;0.10;;;;;;;3.58;59.85;101816.22;5029006;28;20087;-82
2022/02/13 00:54:33;;;;;;;0.40;0.40;;;;;;;3.59;59.73;101818.00;5031249;28;20472;-81
2022/02/13 00:57:03;;;;;;;0.32;0.32;;;;;;;3.69;59.58;101814.78;5024252;28;20060;-80
2022/02/13 00:59:29;;;;;;;0.10;0.10;;;;;;;3.65;59.54;101812.91;5030117;28;20087;-80
2022/02/13 01:01:55;;;;;;;0.80;0.80;;;;;;;3.69;59.65;101814.78;5031830;28;20034;-80
2022/02/13 01:04:23;;;;;;;0.10;0.10;;;;;;;3.69;59.78;101802.53;5032246;28;20030;-81
2022/02/13 01:06:49;;;;;;;0.10;0.10;;;;;;;3.74;58.85;101813.13;5031588;28;20029;-81
2022/02/13 01:09:15;;;;;;;0.08;0.08;;;;;;;3.73;59.51;101800.88;5019725;28;20128;-81
2022/02/13 01:11:42;;;;;;;0.25;0.25;;;;;;;3.76;59.59;101795.69;5029343;28;20354;-80
2022/02/13 01:14:09;;;;;;;0.10;0.10;;;;;;;3.74;59.62;101794.78;5032047;28;20029;-81
2022/02/13 01:16:37;;;;;;;0.17;0.17;;;;;;;3.83;59.34;101792.38;5030050;28;20026;-81
2022/02/13 01:19:05;;;;;;;0.68;0.68;;;;;;;3.80;59.85;101789.69;5027354;28;20059;-83
2022/02/13 01:21:31;;;;;;;0.10;0.10;;;;;;;3.83;59.50;101781.88;5019234;28;20133;-81
2022/02/13 01:23:58;;;;;;;0.10;0.10;;;;;;;3.82;59.71;101782.72;5030272;28;20088;-81
2022/02/13 01:26:25;;;;;;;0.10;0.10;;;;;;;3.89;59.60;101776.78;5030699;28;20365;-80
2022/02/13 01:28:52;;;;;;;1.00;1.00;;;;;;;3.94;59.24;101773.38;5029275;28;20092;-81
2022/02/13 01:31:19;;;;;;;0.20;0.20;;;;;;;3.97;59.47;101770.84;5026087;28;20021;-81
2022/02/13 01:33:47;;;;;;;2.70;0.85;;;;;;;3.96;59.62;101763.81;5027603;28;20021;-81
2022/02/13 01:36:13;;;;;;;0.10;0.10;;;;;;;3.99;59.79;101771.75;5028766;28;20026;-83
2022/02/13 01:38:40;;;;;;;0.15;0.15;;;;;;;4.01;59.56;101770.94;5025829;28;20468;-80
2022/02/13 01:41:07;;;;;;;0.10;0.10;;;;;;;4.04;59.36;101776.25;5021167;28;20025;-81
2022/02/13 01:43:34;;;;;;;1.08;0.73;;;;;;;4.01;59.88;101772.66;5026712;28;20057;-81
2022/02/13 01:46:01;;;;;;;0.10;0.10;;;;;;;4.07;59.49;101769.28;5031733;28;20112;-81
2022/02/13 01:48:29;;;;;;;0.20;0.20;;;;;;;4.04;59.94;101770.13;5030324;28;20113;-83
2022/02/13 01:50:55;;;;;;;0.10;0.10;;;;;;;4.09;59.60;101768.47;5021879;28;20160;-81
2022/02/13 01:53:22;;;;;;;0.15;0.15;;;;;;;4.01;59.77;101764.78;5028390;28;20461;-82
2022/02/13 01:55:49;;;;;;;0.10;0.10;;;;;;;4.02;59.28;101758.69;5029464;28;20034;-81
2022/02/13 01:58:17;;;;;;;0.10;0.10;;;;;;;3.98;59.82;101749.00;5031936;28;20029;-81
2022/02/13 02:00:43;;;;;;;7.03;4.35;;;;;;;3.95;59.63;101744.59;5028623;28;20041;-83
2022/02/13 02:03:10;;;;;;;4.38;0.82;;;;;;;3.90;59.75;101740.97;5011290;28;20029;-81
2022/02/13 02:05:37;;;;;;;0.10;0.10;;;;;;;3.81;60.14;101741.63;5028019;28;20041;-80
2022/02/13 02:08:03;;;;;;;0.10;0.10;;;;;;;3.78;60.35;101731.09;5030425;28;20058;-80
2022/02/13 02:10:30;;;;;;;0.20;0.20;;;;;;;3.79;60.05;101726.72;5031545;28;20488;-80
2022/02/13 02:12:56;;;;;;;0.10;0.10;;;;;;;3.72;60.28;101733.56;5031370;28;20034;-81
2022/02/13 02:15:23;;;;;;;0.10;0.10;;;;;;;3.65;60.71;101724.69;5030128;28;20519;-81
2022/02/13 02:17:52;;;;;;;0.15;0.15;;;;;;;3.67;60.50;101719.47;5028413;28;20031;-82
2022/02/13 02:20:18;;;;;;;0.10;0.10;;;;;;;3.68;60.44;101718.63;5031220;28;20030;-81
2022/02/13 02:22:49;;;;;;;0.10;0.10;;;;;;;3.66;60.79;101718.56;5029367;28;20029;-83
2022/02/13 02:25:16;;;;;;;0.10;0.10;;;;;;;3.64;60.31;101714.16;5011245;28;20042;-81
2022/02/13 02:27:42;;;;;;;0.10;0.10;;;;;;;3.61;60.58;101711.47;5018028;28;20032;-80
2022/02/13 02:30:09;;;;;;;0.38;0.38;;;;;;;3.64;60.79;101711.53;5020833;28;20034;-81
2022/02/13 02:32:35;;;;;;;0.10;0.10;;;;;;;3.61;60.89;101696.63;5033980;28;20068;-81
2022/02/13 02:35:03;;;;;;;0.10;0.10;;;;;;;3.61;60.86;101690.53;5018924;28;20121;-81
2022/02/13 02:37:30;;;;;;;0.10;0.10;;;;;;;3.64;60.27;101690.56;5041138;28;20060;-81
2022/02/13 02:39:57;;;;;;;1.50;1.00;;;;;;;3.58;60.40;101691.34;5024715;28;20038;-81
2022/02/13 02:42:23;;;;;;;0.20;0.20;;;;;;;3.60;60.41;101676.53;5035973;28;20103;-81
2022/02/13 02:44:52;;;;;;;0.10;0.10;;;;;;;3.56;60.94;101679.94;5053123;28;20472;-79
2022/02/13 02:47:18;;;;;;;0.10;0.10;;;;;;;3.58;60.74;101677.31;5049182;28;20055;-80
2022/02/13 02:49:44;;;;;;;0.10;0.10;;;;;;;3.56;60.47;101672.97;5046026;28;20041;-81
2022/02/13 02:52:11;;;;;;;0.20;0.20;;;;;;;3.43;61.23;101670.91;5036168;28;20084;-80
2022/02/13 02:54:37;;;;;;;0.10;0.10;;;;;;;3.45;61.04;101669.22;5047498;28;20086;-81
2022/02/13 02:57:05;;;;;;;0.10;0.10;;;;;;;3.42;61.15;101658.66;5055507;28;20033;-80
2022/02/13 02:59:32;;;;;;;0.10;0.10;;;;;;;3.43;60.94;101651.66;5024617;28;20041;-80
2022/02/13 03:02:02;;;;;;;0.10;0.10;;;;;;;3.47;61.08;101640.44;5034541;28;20507;-81
2022/02/13 03:04:28;;;;;;;1.05;0.95;;;;;;;3.43;61.30;101639.47;5035743;28;20138;-81
2022/02/13 03:06:55;;;;;;;0.10;0.10;;;;;;;3.45;60.51;101632.53;5049334;28;20409;-80
2022/02/13 03:09:22;;;;;;;0.20;0.20;;;;;;;3.46;61.02;101634.28;5019536;28;20073;-81
2022/02/13 03:11:49;;;;;;;0.10;0.10;;;;;;;3.46;61.41;101618.56;5015645;28;20036;-80
2022/02/13 03:14:15;;;;;;;0.10;0.10;;;;;;;3.51;61.19;101605.56;5015576;28;20108;-80
2022/02/13 03:16:41;;;;;;;0.32;0.32;;;;;;;3.51;61.19;101608.19;5015400;28;20512;-80
2022/02/13 03:19:08;;;;;;;0.10;0.10;;;;;;;3.47;61.05;101607.25;5017976;28;20392;-80
2022/02/13 03:21:35;;;;;;;0.10;0.10;;;;;;;3.52;60.88;101602.97;5024301;28;20477;-81
2022/02/13 03:24:07;;;;;;;0.10;0.10;;;;;;;3.55;60.90;101597.81;5054478;28;20057;-80
2022/02/13 03:26:33;;;;;;;0.10;0.10;;;;;;;3.55;60.94;101602.16;5054119;28;20036;-80
2022/02/13 03:29:00;;;;;;;0.20;0.20;;;;;;;3.51;60.82;101595.09;5046676;28;20018;-81
2022/02/13 03:31:27;;;;;;;0.22;0.22;;;;;;;3.46;61.31;101591.50;5022945;28;20405;-81
2022/02/13 03:33:55;;;;;;;0.20;0.20;;;;;;;3.52;60.88;101587.25;5015440;28;20041;-81
2022/02/13 03:36:23;;;;;;;0.28;0.28;;;;;;;3.47;60.96;101578.41;5041370;28;20041;-81
2022/02/13 03:38:49;;;;;;;0.10;0.10;;;;;;;3.39;61.18;101578.25;5054825;28;20029;-81
2022/02/13 03:41:16;;;;;;;0.10;0.10;;;;;;;3.46;61.13;101571.41;5053529;28;20376;-81
2022/02/13 03:43:42;;;;;;;0.10;0.10;;;;;;;3.47;60.69;101572.31;5053275;28;20116;-81
2022/02/13 03:46:09;;;;;;;0.10;0.10;;;;;;;3.53;60.55;101572.44;5054454;28;20033;-81
2022/02/13 03:48:44;;;;;;;0.20;0.20;;;;;;;3.56;60.85;101562.00;5054145;28;20476;-80
2022/02/13 03:51:13;;;;;;;0.10;0.10;;;;;;;3.48;60.91;101556.63;5050768;28;20494;-80
2022/02/13 03:53:41;;;;;;;0.10;0.10;;;;;;;3.51;60.96;101551.44;5034698;28;20042;-80
2022/02/13 03:56:16;;;;;;;0.90;0.90;;;;;;;3.58;60.48;101560.31;5034429;28;20041;-80
2022/02/13 03:58:43;;;;;;;0.10;0.10;;;;;;;3.58;60.70;101559.41;5034973;28;20053;-81
2022/02/13 04:01:09;;;;;;;0.10;0.10;;;;;;;3.54;60.61;101555.88;5048226;28;20025;-81
2022/02/13 04:03:36;;;;;;;0.10;0.10;;;;;;;3.53;60.71;101544.50;5054235;28;20045;-81
2022/02/13 04:06:03;;;;;;;0.10;0.10;;;;;;;3.51;60.58;101554.03;5035711;28;20480;-81
2022/02/13 04:08:29;;;;;;;0.10;0.10;;;;;;;3.56;60.67;101544.56;5053767;28;20083;-82
2022/02/13 04:10:57;;;;;;;1.38;1.27;;;;;;;3.62;60.38;101550.78;5032600;28;20083;-80
2022/02/13 04:13:25;;;;;;;0.10;0.10;;;;;;;3.59;60.35;101551.59;5016259;28;20042;-80
2022/02/13 04:15:52;;;;;;;0.15;0.15;;;;;;;3.55;60.74;101555.91;5013596;28;20038;-81
2022/02/13 04:18:20;;;;;;;0.10;0.10;;;;;;;3.59;60.26;101566.44;5049348;28;20033;-81
2022/02/13 04:20:47;;;;;;;0.10;0.10;;;;;;;3.66;60.00;101568.31;5027997;28;20026;-81
2022/02/13 04:23:13;;;;;;;0.10;0.10;;;;;;;3.64;60.24;101567.41;5021172;28;20033;-82
2022/02/13 04:25:40;;;;;;;0.10;0.10;;;;;;;3.58;60.62;101569.91;5013895;28;20080;-81
2022/02/13 04:28:09;;;;;;;0.10;0.10;;;;;;;3.51;60.55;101569.75;5046877;28;20056;-80
2022/02/13 04:30:35;;;;;;;0.10;0.10;;;;;;;3.59;60.12;101569.94;5018096;28;20029;-83
2022/02/13 04:33:02;;;;;;;0.30;0.30;;;;;;;3.64;60.44;101568.31;5025111;28;20445;-81
2022/02/13 04:35:28;;;;;;;0.10;0.10;;;;;;;3.64;60.23;101568.31;5017907;28;20061;-83
2022/02/13 04:37:56;;;;;;;0.20;0.20;;;;;;;3.61;60.22;101564.72;5021556;28;20048;-84
2022/02/13 04:40:24;;;;;;;0.10;0.10;;;;;;;3.55;60.42;101565.47;5023916;28;20064;-81
2022/02/13 04:42:50;;;;;;;0.40;0.40;;;;;;;3.61;60.22;101549.88;5033393;28;20049;-82
2022/02/13 04:45:17;;;;;;;0.10;0.10;;;;;;;3.59;60.63;101550.69;5026468;28;20068;-82
2022/02/13 04:47:43;;;;;;;0.13;0.13;;;;;;;3.61;60.22;101549.00;5024562;28;20397;-83
2022/02/13 04:50:18;;;;;;;0.73;0.68;;;;;;;3.54;60.88;101550.63;5025041;28;20029;-84
2022/02/13 04:52:45;;;;;;;5.88;1.75;;;;;;;3.62;60.32;101542.91;5023708;28;20041;-84
2022/02/13 04:55:13;;;;;;;0.17;0.17;;;;;;;3.56;60.63;101536.72;5022145;28;20037;-83
2022/02/13 04:57:40;;;;;;;0.35;0.35;;;;;;;3.55;60.77;101539.28;5024929;28;20041;-82
2022/02/13 05:00:08;;;;;;;1.38;1.27;;;;;;;3.62;60.81;101532.44;5024272;28;20400;-82
2022/02/13 05:02:34;;;;;;;0.13;0.13;;;;;;;3.64;60.68;101528.09;5016732;28;20026;-82
2022/02/13 05:05:00;;;;;;;0.10;0.10;;;;;;;3.62;60.62;101532.44;5024714;28;20069;-82
2022/02/13 05:07:26;;;;;;;0.35;0.35;;;;;;;3.62;60.42;101545.53;5021976;28;20037;-83
2022/02/13 05:09:53;;;;;;;0.75;0.75;;;;;;;3.65;60.40;101535.09;5024705;28;20029;-84
2022/02/13 05:12:19;;;;;;;0.10;0.10;;;;;;;3.62;60.67;101529.81;5024316;28;20022;-83
2022/02/13 05:14:46;;;;;;;0.15;0.15;;;;;;;3.68;60.13;101525.56;5015112;28;20053;-83
2022/02/13 05:17:13;;;;;;;0.10;0.10;;;;;;;3.67;60.43;101517.69;5024878;28;20109;-81
2022/02/13 05:19:39;;;;;;;0.10;0.10;;;;;;;3.78;60.27;101520.53;5021916;28;20113;-81
2022/02/13 05:22:06;;;;;;;0.10;0.10;;;;;;;3.81;60.15;101513.56;5038358;28;20040;-82
2022/02/13 05:24:36;;;;;;;0.10;0.10;;;;;;;3.75;60.30;101505.63;5023889;28;20065;-84
2022/02/13 05:27:04;;;;;;;0.10;0.10;;;;;;;3.78;60.30;101499.53;5032014;28;20029;-82
2022/02/13 05:29:32;;;;;;;0.10;0.10;;;;;;;3.83;60.21;101493.50;5033147;28;20510;-82
2022/02/13 05:31:58;;;;;;;0.10;0.10;;;;;;;3.87;60.25;101479.59;5033032;28;20075;-81
2022/02/13 05:34:24;;;;;;;0.15;0.15;;;;;;;3.80;60.36;101474.22;5033154;28;20041;-83
2022/02/13 05:36:51;;;;;;;0.10;0.10;;;;;;;3.84;59.98;101481.31;5051459;22;20040;-77
2022/02/13 05:39:17;;;;;;;0.10;0.10;;;;;;;3.92;60.02;101473.56;5053361;28;20033;-77
2022/02/13 05:41:44;;;;;;;0.10;0.10;;;;;;;3.92;60.10;101470.97;5052996;28;20037;-77
2022/02/13 05:44:11;;;;;;;0.30;0.30;;;;;;;3.89;59.95;101462.16;5048942;28;20079;-77
2022/02/13 05:46:37;;;;;;;0.10;0.10;;;;;;;3.99;60.07;101457.09;5045945;28;20084;-77
2022/02/13 05:49:03;;;;;;;0.17;0.17;;;;;;;4.04;59.99;101450.19;5049466;28;20029;-77
2022/02/13 05:51:30;;;;;;;0.10;0.10;;;;;;;4.02;60.08;101454.50;5037963;28;20022;-76
2022/02/13 05:53:57;;;;;;;0.10;0.10;;;;;;;4.08;59.89;101457.25;5036366;28;20047;-77
2022/02/13 05:56:24;;;;;;;0.20;0.20;;;;;;;4.12;59.35;101453.81;5048709;28;20037;-77
2022/02/13 05:58:51;;;;;;;0.10;0.10;;;;;;;4.16;59.33;101449.50;5048903;28;20519;-76
2022/02/13 06:01:18;;;;;;;0.73;0.73;;;;;;;4.16;59.70;101455.63;5047025;28;20080;-77
2022/02/13 06:03:45;;;;;;;0.10;0.10;;;;;;;4.15;59.34;101458.22;5051624;28;20502;-77
2022/02/13 06:06:11;;;;;;;0.10;0.10;;;;;;;4.21;59.07;101453.97;5051602;28;20025;-76
2022/02/13 06:08:39;;;;;;;0.10;0.10;;;;;;;4.25;59.00;101449.66;5055946;28;20021;-76
2022/02/13 06:11:06;;;;;;;0.85;0.85;;;;;;;4.27;59.19;101440.06;5052952;28;20086;-77
2022/02/13 06:13:32;;;;;;;0.22;0.22;;;;;;;4.31;58.79;101435.72;5055463;28;20147;-77
2022/02/13 06:16:01;;;;;;;0.10;0.10;;;;;;;4.29;59.16;101432.22;5047591;28;20029;-77
2022/02/13 06:18:28;;;;;;;0.10;0.10;;;;;;;4.29;58.94;101430.47;5055237;28;20395;-77
2022/02/13 06:20:54;;;;;;;0.10;0.10;;;;;;;4.30;58.65;101426.09;5055437;28;20422;-77
2022/02/13 06:23:23;;;;;;;0.10;0.10;;;;;;;4.33;59.27;101426.16;5053520;28;20027;-76
2022/02/13 06:25:49;;;;;;;1.65;1.00;;;;;;;4.36;59.25;101426.19;5043769;28;20041;-77
2022/02/13 06:28:15;;;;;;;0.10;0.10;;;;;;;4.45;58.77;101421.09;5055022;28;20063;-77
2022/02/13 06:30:42;;;;;;;0.20;0.20;;;;;;;4.33;58.97;101410.41;5055437;28;20434;-77
2022/02/13 06:33:09;;;;;;;0.10;0.10;;;;;;;4.47;58.59;101413.25;5055394;28;20383;-77
2022/02/13 06:35:35;;;;;;;0.90;0.90;;;;;;;4.44;58.53;101405.34;5055340;28;20060;-77
2022/02/13 06:38:03;;;;;;;0.10;0.10;;;;;;;4.50;58.99;101408.06;5055084;28;20420;-77
2022/02/13 06:40:31;;;;;;;0.10;0.10;;;;;;;4.54;58.37;101407.22;5055097;28;20033;-77
2022/02/13 06:42:57;;;;;;;0.47;0.47;;;;;;;4.53;58.48;101414.19;5052292;28;20488;-77
2022/02/13 06:45:25;;;;;;;0.45;0.45;;;;;;;4.54;58.33;101399.34;5048037;28;20488;-77
2022/02/13 06:47:52;;;;;;;0.20;0.20;;;;;;;4.50;58.84;101406.28;5036028;28;20033;-77
2022/02/13 06:50:18;;;;;;;0.10;0.10;;;;;;;4.54;58.43;101405.47;5035912;28;20452;-77
2022/02/13 06:52:45;;;;;;;0.10;0.10;;;;;;;4.59;58.52;101402.03;5036232;28;20510;-77
2022/02/13 06:55:11;;;;;;;0.35;0.35;;;;;;;4.65;58.33;101396.88;5036224;28;20034;-77
2022/02/13 06:57:52;;;;;;;0.13;0.13;;;;;;;4.73;57.93;101389.97;5035864;28;20025;-76
2022/02/13 07:00:19;;;;;;;0.10;0.10;;;;;;;4.62;58.28;101402.97;5035742;28;20061;-77
2022/02/13 07:02:46;;;;;;;0.10;0.10;;;;;;;4.67;57.96;101406.53;5035971;28;20030;-77
2022/02/13 07:05:13;;;;;;;0.10;0.10;;;;;;;4.68;57.97;101407.41;5035645;28;20033;-77
2022/02/13 07:07:40;;;;;;;0.10;0.10;;;;;;;4.69;57.78;101409.16;5050020;22;20042;-83
2022/02/13 07:10:10;;;;;;;0.40;0.40;;;;;;;4.76;58.01;101411.03;5035177;28;20065;-83
2022/02/13 07:12:37;;;;;;;0.10;0.10;;;;;;;4.69;57.73;101414.44;5033366;28;20374;-83
2022/02/13 07:15:06;;;;;;;0.10;0.10;;;;;;;4.74;57.68;101404.88;5033775;28;20065;-82
2022/02/13 07:17:33;;;;;;;0.10;0.10;;;;;;;4.74;57.96;101404.88;5034590;28;20032;-80
2022/02/13 07:20:05;;;;;;;0.10;0.10;;;;;;;4.75;58.26;101403.09;5034935;28;20469;-81
2022/02/13 07:22:31;;;;;;;0.20;0.20;;;;;;;4.77;57.56;101407.53;5033846;28;20408;-81
2022/02/13 07:24:58;;;;;;;0.10;0.10;;;;;;;4.78;57.87;101397.91;5035075;28;20072;-82
2022/02/13 07:27:24;;;;;;;0.32;0.32;;;;;;;4.83;57.52;101397.09;5034733;28;20026;-81
2022/02/13 07:29:50;;;;;;;0.10;0.10;;;;;;;4.83;57.69;101397.09;5035275;28;20029;-82
2022/02/13 07:33:01;;;;;;;0.10;0.10;;;;;;;4.83;57.86;101394.47;5048968;28;20467;-80
2022/02/13 07:35:27;;;;;;;0.00;0.00;;;;;;;4.95;57.87;101403.38;5015427;28;20053;-83
2022/02/13 07:37:54;;;;;;;0.10;0.10;;;;;;;4.92;57.63;101393.72;5034856;28;20384;-83
2022/02/13 07:40:21;;;;;;;0.10;0.10;;;;;;;4.98;57.88;101400.78;5034631;28;20038;-83
2022/02/13 07:42:47;;;;;;;0.10;0.10;;;;;;;5.00;57.99;101396.44;5033638;28;20030;-83
2022/02/13 07:45:13;;;;;;;0.10;0.10;;;;;;;5.00;57.52;101385.94;5034655;28;20107;-83
2022/02/13 07:47:40;;;;;;;0.10;0.10;;;;;;;4.99;57.28;101385.03;5034618;28;20029;-83
2022/02/13 07:50:08;;;;;;;0.10;0.10;;;;;;;5.11;57.60;101381.69;5033618;28;20032;-83
2022/02/13 07:52:36;;;;;;;0.10;0.10;;;;;;;5.13;57.46;101379.06;5034679;28;20129;-80
2022/02/13 07:55:02;;;;;;;0.25;0.25;;;;;;;5.16;57.65;101374.72;5033749;28;20479;-83
2022/02/13 07:57:29;;;;;;;0.10;0.10;;;;;;;5.19;57.60;101374.75;5034269;28;20120;-83
2022/02/13 07:59:55;;;;;;;0.10;0.10;;;;;;;5.28;57.31;101367.84;5034292;28;20124;-84
2022/02/13 08:02:24;;;;;;;0.10;0.10;;;;;;;5.34;57.36;101363.50;5032977;28;20522;-81
2022/02/13 08:04:51;;;;;;;0.10;0.10;;;;;;;5.28;57.29;101367.84;5034483;28;20045;-81
2022/02/13 08:07:17;;;;;;;0.20;0.20;;;;;;;5.35;57.00;101369.66;5035462;28;20083;-82
2022/02/13 08:09:43;;;;;;;0.10;0.10;;;;;;;5.35;57.20;101364.41;5054167;28;20059;-82
2022/02/13 08:12:10;;;;;;;0.10;0.10;;;;;;;5.38;56.83;101364.44;5054031;28;20037;-84
2022/02/13 08:14:36;;;;;;;0.45;0.45;;;;;;;5.44;56.49;101347.84;5054000;28;20116;-81
2022/02/13 08:17:03;;;;;;;0.25;0.25;;;;;;;5.45;56.79;101349.63;5053971;28;20127;-82
2022/02/13 08:19:35;;;;;;;0.10;0.10;;;;;;;5.48;56.74;101350.53;5054016;28;20068;-81
2022/02/13 08:22:03;;;;;;;0.10;0.10;;;;;;;5.52;56.77;101346.19;5054212;28;20033;-82
2022/02/13 08:24:29;;;;;;;0.10;0.10;;;;;;;5.69;56.69;101343.69;5054168;28;20025;-84
2022/02/13 08:26:55;;;;;;;0.10;0.10;;;;;;;5.61;56.96;101351.50;5054124;28;20032;-84
2022/02/13 08:29:22;;;;;;;0.10;0.10;;;;;;;5.67;56.41;101346.31;5054019;28;20131;-84
2022/02/13 08:31:48;;;;;;;0.10;0.10;;;;;;;5.67;57.13;101340.19;5053906;28;20086;-84
2022/02/13 08:34:14;;;;;;;0.40;0.40;;;;;;;5.70;56.68;101327.03;5054135;28;20029;-83
2022/02/13 08:36:40;;;;;;;0.15;0.15;;;;;;;5.72;56.60;101327.94;5054721;28;20119;-81
2022/02/13 08:39:08;;;;;;;0.10;0.10;;;;;;;5.79;56.74;101329.72;5053840;28;20021;-81
2022/02/13 08:41:38;;;;;;;0.10;0.10;;;;;;;5.83;56.83;101326.28;5053844;28;20104;-81
2022/02/13 08:44:06;;;;;;;0.15;0.15;;;;;;;5.97;56.51;101328.13;5053516;28;20041;-81
2022/02/13 08:46:39;;;;;;;0.10;0.10;;;;;;;6.03;56.31;101329.94;5055671;28;20037;-83
2022/02/13 08:49:09;;;;;;;0.22;0.22;;;;;;;5.99;56.30;101323.78;5055187;28;20040;-82
2022/02/13 08:51:44;;;;;;;0.75;0.75;;;;;;;6.09;56.28;101316.81;5054771;28;20035;-82
2022/02/13 08:54:12;;;;;;;0.10;0.10;;;;;;;6.18;56.20;101316.00;5053411;28;20028;-81
2022/02/13 08:56:46;;;;;;;0.10;0.10;;;;;;;6.22;56.10;101312.50;5053009;28;20029;-81
2022/02/13 08:59:35;;;;;;;0.10;0.10;;;;;;;6.31;56.19;101300.28;5053465;28;20091;-82
2022/02/13 09:02:01;;;;;;;0.08;0.08;;;;;;;6.29;55.68;101314.31;5043057;28;20099;-81
2022/02/13 09:04:27;;;;;;;0.73;0.73;;;;;;;6.33;55.91;101300.31;5053264;28;20036;-81
2022/02/13 09:06:54;;;;;;;0.20;0.20;;;;;;;6.41;55.69;101300.34;5053257;28;20036;-82
2022/02/13 09:09:23;;;;;;;0.10;0.10;;;;;;;6.44;55.11;101290.72;5052232;28;20037;-81
2022/02/13 09:11:49;;;;;;;0.10;0.10;;;;;;;6.41;55.36;101282.78;5053223;28;20025;-80
2022/02/13 09:14:16;;;;;;;0.10;0.10;;;;;;;6.55;55.39;101290.72;5052784;28;20037;-82
2022/02/13 09:16:42;;;;;;;0.10;0.10;;;;;;;6.57;55.25;101291.63;5052862;28;20071;-81
2022/02/13 09:19:08;;;;;;;1.10;1.00;;;;;;;6.63;55.01;101275.84;5053221;28;20025;-81
2022/02/13 09:21:35;;;;;;;0.10;0.10;;;;;;;6.63;54.96;101278.47;5052784;28;20040;-81
2022/02/13 09:24:02;;;;;;;0.32;0.32;;;;;;;6.70;54.82;101273.22;5052014;28;20040;-81
2022/02/13 09:26:28;;;;;;;0.85;0.60;;;;;;;6.88;54.81;101264.47;5048068;28;20029;-81
2022/02/13 09:28:54;;;;;;;0.32;0.32;;;;;;;6.89;54.60;101259.25;5039304;28;20036;-81
2022/02/13 09:31:21;;;;;;;0.65;0.65;;;;;;;6.95;54.20;101253.09;5044591;28;20434;-81
2022/02/13 09:33:47;;;;;;;0.10;0.10;;;;;;;6.96;53.60;101245.19;5051468;28;20122;-80
2022/02/13 09:36:14;;;;;;;1.17;1.17;;;;;;;6.99;53.91;101244.34;5051428;28;20025;-81
2022/02/13 09:38:41;;;;;;;0.10;0.10;;;;;;;7.01;53.56;101232.03;5045670;28;20064;-81
2022/02/13 09:41:20;;;;;;;0.10;0.10;;;;;;;6.97;53.66;101222.38;5025276;28;20095;-80
2022/02/13 09:43:50;;;;;;;0.10;0.10;;;;;;;7.01;53.85;101215.34;5053536;28;20048;-81
2022/02/13 09:46:17;;;;;;;0.08;0.08;;;;;;;7.04;53.62;101224.13;5055180;28;20033;-81
2022/02/13 09:48:44;;;;;;;0.20;0.20;;;;;;;7.11;53.81;101217.97;5056470;28;20127;-80
2022/02/13 09:51:11;;;;;;;0.10;0.10;;;;;;;7.16;54.16;101225.00;5055865;28;20065;-79
2022/02/13 09:53:39;;;;;;;0.82;0.82;;;;;;;7.09;53.76;101225.00;5053215;28;20033;-80
2022/02/13 09:56:06;;;;;;;0.10;0.10;;;;;;;7.17;54.35;101216.25;5039513;28;20025;-81
2022/02/13 09:58:33;;;;;;;0.10;0.10;;;;;;;7.13;53.92;101210.94;5053458;28;20079;-82
2022/02/13 10:03:57;;;;;;;0.32;0.32;;;;;;;7.38;54.24;101205.69;5050034;28;20497;-81
2022/02/13 10:06:25;;;;;;;0.13;0.13;;;;;;;7.41;54.10;101213.59;5046754;28;20037;-81
2022/02/13 10:08:53;;;;;;;0.20;0.20;;;;;;;7.42;53.54;101212.69;5026212;28;20485;-83
2022/02/13 10:11:28;;;;;;;0.20;0.20;;;;;;;7.49;54.02;101217.94;5025636;28;20498;-81
2022/02/13 10:14:14;;;;;;;0.10;0.10;;;;;;;7.69;53.97;101213.53;5024873;28;20022;-82
2022/02/13 10:16:45;;;;;;;0.10;0.10;;;;;;;7.72;53.50;101204.75;5026549;28;20056;-81
2022/02/13 10:19:15;;;;;;;0.17;0.17;;;;;;;7.89;53.55;101209.97;5027904;28;20017;-81
2022/02/13 10:24:31;;;;;;;0.20;0.20;;;;;;;7.99;53.54;101198.50;5077992;27;20469;-82
2022/02/13 10:29:43;;;;;;;0.10;0.10;;;;;;;8.23;52.42;101194.00;5059119;28;20894;-81
2022/02/13 10:40:28;;;;;;;0.30;0.30;;;;;;;8.51;50.02;101184.22;5068699;28;20993;-80
2022/02/13 10:43:04;;;;;;;0.10;0.10;;;;;;;8.64;50.17;101181.50;5059815;28;20531;-80
2022/02/13 10:45:32;;;;;;;0.10;0.10;;;;;;;8.59;50.08;101178.88;5059794;28;20395;-81
2022/02/13 10:48:01;;;;;;;0.10;0.10;;;;;;;8.66;49.27;101169.13;5057632;28;20056;-80
2022/02/13 10:50:30;;;;;;;0.10;0.10;;;;;;;8.74;48.59;101168.19;5057399;28;20032;-81
2022/02/13 10:52:59;;;;;;;5.28;0.90;;;;;;;8.81;48.44;101163.75;5057781;28;20120;-80
2022/02/13 10:55:27;;;;;;;0.10;0.10;;;;;;;8.88;48.58;101170.75;5057048;28;20029;-81
2022/02/13 10:57:54;;;;;;;0.10;0.10;;;;;;;8.85;48.07;101161.97;5057586;28;20051;-81
2022/02/13 11:00:21;;;;;;;0.10;0.10;;;;;;;8.90;48.25;101152.25;5056259;28;20031;-81
2022/02/13 11:02:52;;;;;;;0.10;0.10;;;;;;;9.06;48.17;101153.84;5057074;28;20059;-81
2022/02/13 11:05:21;;;;;;;0.00;0.00;;;;;;;8.94;47.72;101153.97;5060050;28;20108;-81
2022/02/13 11:07:51;;;;;;;0.10;0.10;;;;;;;9.09;47.32;101152.09;5065109;28;20027;-81
2022/02/13 11:10:25;;;;;;;0.20;0.20;;;;;;;9.09;46.69;101149.44;5066734;28;20032;-81
2022/02/13 11:12:55;;;;;;;0.00;0.00;;;;;;;9.25;47.58;101132.53;5066938;28;20079;-81
2022/02/13 11:15:27;;;;;;;0.10;0.10;;;;;;;9.32;47.14;101136.88;5066882;28;20422;-81
2022/02/13 11:18:01;;;;;;;0.10;0.10;;;;;;;9.52;46.66;101115.50;5062775;28;20166;-81
2022/02/13 11:20:29;;;;;;;0.10;0.10;;;;;;;9.62;46.72;101096.88;5055882;28;20033;-80
2022/02/13 11:23:15;;;;;;;3.83;1.73;;;;;;;9.71;46.26;101107.38;5057296;28;20025;-81
2022/02/13 11:34:15;;;;;;;0.38;0.38;;;;;;;9.76;44.99;101091.41;5069440;27;20418;-81
2022/02/13 11:42:20;;;;;;;0.10;0.10;;;;;;;10.28;45.98;101080.13;5049261;28;20910;-75
2022/02/13 11:44:50;;;;;;;0.10;0.10;;;;;;;10.30;45.58;101073.00;5048275;28;20039;-75
2022/02/13 11:47:40;;;;;;;0.10;0.10;;;;;;;10.38;45.92;101064.09;5040143;28;20388;-76
2022/02/13 11:52:57;;;;;;;0.10;0.10;;;;;;;10.37;45.55;101065.91;5076736;28;20995;-76
2022/02/13 11:55:27;;;;;;;0.10;0.10;;;;;;;10.42;45.73;101034.00;5060953;28;20037;-75
2022/02/13 11:57:59;;;;;;;1.10;1.10;;;;;;;10.43;46.09;101030.47;5037141;28;20030;-76
2022/02/13 12:00:48;;;;;;;0.30;0.30;;;;;;;10.70;46.25;101015.03;5033393;28;20031;-76
2022/02/13 12:03:19;;;;;;;0.10;0.10;;;;;;;10.65;46.77;101010.69;5036373;28;20039;-75
2022/02/13 12:08:46;;;;;;;0.43;0.43;;;;;;;10.84;46.59;101015.63;5030532;28;20385;-76
2022/02/13 12:11:14;;;;;;;0.10;0.10;;;;;;;10.97;47.06;101005.69;5027771;28;20061;-77
2022/02/13 12:13:43;;;;;;;0.30;0.30;;;;;;;11.06;47.20;101004.63;5017584;28;20473;-76